International Virtual Aviation Organisation

Eastern Europe and Northern Asia MCD

 
UUOO 121300Z 10007MPS CAVOK 24/M02 Q1023 R12/010070 NOSIG RMK QFE753
QNH:(hPa/inHg/mmHg)1023 / 30.21 / 767
QFE:(hPa/inHg/mmHg)1004 / 29.65 / 753
Temperature24
Dew Point-2
Visibility> 10000
WeatherCAVOK
Cloud Cover
Transition Height600 m./2500 ft.
Transition LevelFL40
SQUAWK